Time;durP1;ratioP1;P1;durP2;ratioP2;P2;SDS_P1;SDS_P2;PMS_P1;PMS_P2;Temp;Humidity;BMP_temperature;BMP_pressure;BME280_temperature;BME280_humidity;BME280_pressure;Samples;Min_cycle;Max_cycle;Signal;HPM_P1;HPM_P2
2022/04/15 00:00:06;;;;;;;4.05;3.65;;;14.50;99.90;;;;;;5115780;28;20292;-68
2022/04/15 00:02:32;;;;;;;6.30;4.63;;;14.50;99.90;;;;;;5115892;28;20572;-68
2022/04/15 00:04:59;;;;;;;7.38;4.20;;;14.50;99.90;;;;;;5115262;28;20202;-68
2022/04/15 00:07:26;;;;;;;4.78;4.30;;;14.50;99.90;;;;;;5115482;28;20739;-69
2022/04/15 00:09:53;;;;;;;5.85;4.63;;;14.40;99.90;;;;;;5115681;27;20198;-68
2022/04/15 00:12:28;;;;;;;4.60;4.20;;;14.40;99.90;;;;;;5115434;28;20230;-68
2022/04/15 00:14:55;;;;;;;5.35;4.85;;;14.40;99.90;;;;;;5115387;28;20230;-68
2022/04/15 00:17:24;;;;;;;4.80;4.32;;;14.40;99.90;;;;;;5115349;28;20202;-68
2022/04/15 00:19:51;;;;;;;5.00;4.50;;;14.40;99.90;;;;;;5115408;28;20229;-68
2022/04/15 00:22:18;;;;;;;5.03;4.28;;;14.40;99.90;;;;;;5115382;28;20317;-68
2022/04/15 00:24:44;;;;;;;4.97;4.43;;;14.50;99.90;;;;;;5114988;28;20209;-68
2022/04/15 00:27:12;;;;;;;4.60;4.20;;;14.50;99.90;;;;;;5114956;28;20208;-68
2022/04/15 00:29:39;;;;;;;5.70;4.90;;;14.50;99.90;;;;;;5115036;28;20620;-68
2022/04/15 00:32:07;;;;;;;4.50;4.10;;;14.50;99.90;;;;;;5114934;28;20236;-68
2022/04/15 00:34:35;;;;;;;4.50;4.05;;;14.50;99.90;;;;;;5114759;28;20202;-68
2022/04/15 00:37:02;;;;;;;5.03;4.60;;;14.60;99.90;;;;;;5115096;28;20297;-68
2022/04/15 00:39:29;;;;;;;4.63;4.20;;;14.60;99.90;;;;;;5114852;28;20202;-68
2022/04/15 00:41:58;;;;;;;4.93;4.50;;;14.60;99.90;;;;;;5114933;27;20305;-68
2022/04/15 00:44:25;;;;;;;4.75;4.25;;;14.60;99.90;;;;;;5114507;28;20669;-68
2022/04/15 00:46:52;;;;;;;4.93;4.32;;;14.60;99.90;;;;;;5114644;28;20262;-68
2022/04/15 00:49:18;;;;;;;6.25;4.32;;;14.60;99.90;;;;;;5114827;28;20214;-68
2022/04/15 00:51:50;;;;;;;4.50;4.10;;;14.60;99.90;;;;;;5114715;28;20223;-68
2022/04/15 00:54:22;;;;;;;4.30;3.90;;;14.70;99.90;;;;;;5114457;28;20227;-68
2022/04/15 00:56:52;;;;;;;4.70;4.30;;;14.70;99.90;;;;;;5114698;28;20550;-69
2022/04/15 00:59:20;;;;;;;4.38;3.97;;;14.80;99.90;;;;;;5114925;28;20255;-69
2022/04/15 01:01:47;;;;;;;4.30;3.90;;;14.70;99.90;;;;;;5114657;28;20580;-68
2022/04/15 01:04:15;;;;;;;4.90;4.40;;;14.70;99.90;;;;;;5114453;28;20211;-68
2022/04/15 01:06:42;;;;;;;4.50;4.15;;;14.70;99.90;;;;;;5114509;28;20210;-68
2022/04/15 01:09:13;;;;;;;5.43;4.35;;;14.70;99.90;;;;;;5113961;28;20205;-68
2022/04/15 01:11:44;;;;;;;5.40;4.90;;;14.70;99.90;;;;;;5114265;28;20222;-68
2022/04/15 01:14:12;;;;;;;5.50;4.80;;;14.70;99.90;;;;;;5114038;28;20665;-68
2022/04/15 01:16:40;;;;;;;5.60;4.97;;;14.60;99.90;;;;;;5114623;28;20207;-68
2022/04/15 01:19:06;;;;;;;6.30;4.85;;;14.60;99.90;;;;;;5114435;28;20201;-67
2022/04/15 01:21:35;;;;;;;5.60;4.50;;;14.50;99.90;;;;;;5114324;28;20717;-68
2022/04/15 01:24:04;;;;;;;5.03;4.53;;;14.50;99.90;;;;;;5114205;28;20206;-68
2022/04/15 01:26:30;;;;;;;5.28;4.80;;;14.50;99.90;;;;;;5114318;28;20296;-68
2022/04/15 01:28:57;;;;;;;4.97;4.53;;;14.50;99.90;;;;;;5113917;28;20205;-68
2022/04/15 01:31:29;;;;;;;7.20;4.65;;;14.50;99.90;;;;;;5114338;28;20237;-68
2022/04/15 01:33:56;;;;;;;5.80;5.30;;;14.40;99.90;;;;;;5114088;28;20693;-68
2022/04/15 01:36:23;;;;;;;5.43;4.93;;;14.40;99.90;;;;;;5114122;28;20198;-68
2022/04/15 01:38:50;;;;;;;4.95;4.55;;;14.40;99.90;;;;;;5114144;28;20206;-68
2022/04/15 01:41:18;;;;;;;5.60;4.90;;;14.50;99.90;;;;;;5114173;28;20243;-68
2022/04/15 01:43:45;;;;;;;7.88;4.80;;;14.50;99.90;;;;;;5113986;28;20297;-68
2022/04/15 01:46:11;;;;;;;6.43;5.40;;;14.50;99.90;;;;;;5114006;28;20292;-68
2022/04/15 01:48:38;;;;;;;7.88;5.22;;;14.50;99.90;;;;;;5114153;28;20352;-68
2022/04/15 01:51:05;;;;;;;5.00;4.57;;;14.50;99.90;;;;;;5113861;28;20312;-68
2022/04/15 01:53:32;;;;;;;6.40;4.85;;;14.50;99.90;;;;;;5114302;28;20201;-68
2022/04/15 01:55:59;;;;;;;4.70;4.30;;;14.50;99.90;;;;;;5113942;28;20201;-68
2022/04/15 01:58:27;;;;;;;4.82;4.35;;;14.40;99.90;;;;;;5113934;28;20623;-68
2022/04/15 02:00:55;;;;;;;5.63;5.13;;;14.40;99.90;;;;;;5113857;28;20613;-68
2022/04/15 02:03:21;;;;;;;5.72;5.00;;;14.40;99.90;;;;;;5113717;28;20565;-68
2022/04/15 02:05:48;;;;;;;5.60;5.07;;;14.40;99.90;;;;;;5113797;28;20206;-68
2022/04/15 02:08:15;;;;;;;5.93;5.20;;;14.50;99.90;;;;;;5113879;28;20561;-68
2022/04/15 02:10:42;;;;;;;6.90;5.15;;;14.50;99.90;;;;;;5113744;28;20202;-69
2022/04/15 02:13:09;;;;;;;5.72;5.22;;;14.40;99.90;;;;;;5113316;28;20727;-68
2022/04/15 02:15:37;;;;;;;5.53;5.03;;;14.30;99.90;;;;;;5113787;28;20296;-68
2022/04/15 02:18:04;;;;;;;5.78;5.22;;;14.30;99.90;;;;;;5113650;28;20694;-68
2022/04/15 02:20:31;;;;;;;6.25;5.45;;;14.20;99.90;;;;;;5115787;28;20202;-68
2022/04/15 02:22:57;;;;;;;5.85;5.35;;;14.10;99.90;;;;;;5117607;28;20193;-68
2022/04/15 02:25:24;;;;;;;7.32;5.03;;;14.20;99.90;;;;;;5117758;28;20202;-68
2022/04/15 02:27:51;;;;;;;6.18;5.35;;;14.20;99.90;;;;;;5117618;28;20243;-68
2022/04/15 02:30:18;;;;;;;6.68;5.03;;;14.20;99.90;;;;;;5117438;28;20300;-68
2022/04/15 02:32:47;;;;;;;7.32;6.03;;;14.10;99.90;;;;;;5117412;28;20248;-68
2022/04/15 02:35:13;;;;;;;6.50;5.60;;;14.10;99.90;;;;;;5117328;28;20205;-68
2022/04/15 02:37:40;;;;;;;6.13;5.55;;;14.00;99.90;;;;;;5117509;28;20233;-68
2022/04/15 02:40:08;;;;;;;6.70;6.00;;;14.00;99.90;;;;;;5117343;28;20292;-68
2022/04/15 02:42:35;;;;;;;6.72;6.13;;;14.00;99.90;;;;;;5117327;28;20217;-68
2022/04/15 02:45:03;;;;;;;6.30;5.10;;;13.90;99.90;;;;;;5117066;28;20677;-68
2022/04/15 02:47:30;;;;;;;5.95;5.45;;;13.90;99.90;;;;;;5117217;28;20205;-68
2022/04/15 02:49:58;;;;;;;6.13;5.63;;;13.90;99.90;;;;;;5117006;28;20201;-68
2022/04/15 02:52:25;;;;;;;5.90;5.30;;;13.90;99.90;;;;;;5116835;27;20229;-68
2022/04/15 02:54:52;;;;;;;7.93;6.20;;;14.00;99.90;;;;;;5116972;28;20198;-68
2022/04/15 02:57:19;;;;;;;6.75;6.15;;;14.00;99.90;;;;;;5117097;28;20205;-68
2022/04/15 02:59:46;;;;;;;8.88;5.90;;;14.00;99.90;;;;;;5116935;27;20559;-68
2022/04/15 03:02:14;;;;;;;6.13;5.53;;;14.00;99.90;;;;;;5117004;28;20304;-68
2022/04/15 03:04:41;;;;;;;6.00;5.38;;;13.90;99.90;;;;;;5116807;28;20205;-68
2022/04/15 03:07:09;;;;;;;7.35;5.90;;;13.90;99.90;;;;;;5116960;28;20570;-68
2022/04/15 03:09:35;;;;;;;7.75;5.93;;;13.80;99.90;;;;;;5117080;27;20208;-68
2022/04/15 03:12:03;;;;;;;6.32;5.72;;;13.80;99.90;;;;;;5116373;28;20761;-68
2022/04/15 03:14:29;;;;;;;6.93;6.20;;;13.80;99.90;;;;;;5116604;28;20290;-67
2022/04/15 03:16:56;;;;;;;6.72;6.13;;;13.80;99.90;;;;;;5116383;28;20730;-69
2022/04/15 03:19:23;;;;;;;7.40;6.38;;;13.70;99.90;;;;;;5116688;28;20206;-68
2022/04/15 03:21:50;;;;;;;6.60;5.60;;;13.70;99.90;;;;;;5116295;28;20699;-68
2022/04/15 03:24:18;;;;;;;6.95;6.25;;;13.70;99.90;;;;;;5116318;27;20206;-68
2022/04/15 03:26:45;;;;;;;6.93;6.22;;;13.60;99.90;;;;;;5116608;28;20201;-68
2022/04/15 03:29:12;;;;;;;6.45;5.85;;;13.70;99.90;;;;;;5116200;28;20299;-68
2022/04/15 03:31:38;;;;;;;6.68;6.03;;;13.90;99.90;;;;;;5115772;28;20224;-68
2022/04/15 03:34:05;;;;;;;7.10;6.10;;;14.00;99.90;;;;;;5116259;28;20571;-68
2022/04/15 03:36:32;;;;;;;6.45;5.60;;;14.00;99.90;;;;;;5116406;28;20292;-68
2022/04/15 03:38:59;;;;;;;6.65;5.85;;;14.10;99.90;;;;;;5116213;28;20667;-68
2022/04/15 03:41:27;;;;;;;6.10;5.38;;;14.10;99.90;;;;;;5116099;28;20228;-68
2022/04/15 03:43:54;;;;;;;10.18;6.38;;;14.10;99.90;;;;;;5115810;28;20204;-68
2022/04/15 03:46:20;;;;;;;7.53;6.78;;;14.00;99.90;;;;;;5116392;28;20288;-68
2022/04/15 03:48:47;;;;;;;8.32;7.28;;;14.00;99.90;;;;;;5115914;27;20208;-68
2022/04/15 03:51:14;;;;;;;8.88;7.68;;;13.90;99.90;;;;;;5115841;28;20221;-68
2022/04/15 03:53:41;;;;;;;7.30;6.60;;;13.80;99.90;;;;;;5115540;28;20232;-68
2022/04/15 03:56:08;;;;;;;8.63;6.95;;;13.80;99.90;;;;;;5115926;28;20674;-68
2022/04/15 03:58:36;;;;;;;7.00;6.22;;;13.80;99.90;;;;;;5115824;28;20205;-68
2022/04/15 04:01:04;;;;;;;7.20;6.47;;;13.90;99.90;;;;;;5115783;28;20225;-68
2022/04/15 04:03:31;;;;;;;7.03;6.28;;;13.80;99.90;;;;;;5115494;28;20201;-68
2022/04/15 04:05:58;;;;;;;7.78;6.45;;;13.80;99.90;;;;;;5115933;28;20288;-68
2022/04/15 04:08:25;;;;;;;8.10;7.30;;;13.80;99.90;;;;;;5115653;28;20292;-68
2022/04/15 04:10:52;;;;;;;10.15;7.00;;;13.70;99.90;;;;;;5115598;28;20767;-68
2022/04/15 04:13:18;;;;;;;7.05;6.45;;;13.70;99.90;;;;;;5115351;28;20243;-68
2022/04/15 04:15:46;;;;;;;9.15;7.18;;;13.50;99.90;;;;;;5115682;28;20201;-68
2022/04/15 04:18:14;;;;;;;8.60;6.70;;;13.30;99.90;;;;;;5115853;28;20288;-67
2022/04/15 04:20:41;;;;;;;7.65;6.63;;;13.20;99.90;;;;;;5115242;28;20205;-68
2022/04/15 04:23:08;;;;;;;7.93;6.63;;;13.20;99.90;;;;;;5115320;28;20232;-68
2022/04/15 04:25:35;;;;;;;8.00;6.65;;;13.10;99.90;;;;;;5115181;28;20292;-68
2022/04/15 04:28:02;;;;;;;8.95;6.20;;;13.00;99.90;;;;;;5115752;28;20296;-68
2022/04/15 04:30:28;;;;;;;7.07;6.38;;;13.00;99.90;;;;;;5115087;28;20299;-68
2022/04/15 04:32:59;;;;;;;8.35;6.70;;;13.00;99.90;;;;;;5115167;28;20233;-68
2022/04/15 04:35:27;;;;;;;7.22;6.45;;;12.90;99.90;;;;;;5115296;28;20563;-68
2022/04/15 04:37:54;;;;;;;7.75;6.88;;;12.90;99.90;;;;;;5114882;28;20201;-68
2022/04/15 04:40:22;;;;;;;8.95;6.85;;;12.80;99.90;;;;;;5115078;28;20232;-68
2022/04/15 04:42:51;;;;;;;8.38;7.40;;;12.80;99.90;;;;;;5114247;28;20601;-67
2022/04/15 04:45:19;;;;;;;10.73;7.82;;;12.80;99.90;;;;;;5114863;28;20204;-68
2022/04/15 04:47:48;;;;;;;8.90;7.43;;;12.90;99.90;;;;;;5114996;28;20205;-68
2022/04/15 04:50:16;;;;;;;8.25;7.03;;;13.00;99.90;;;;;;5114827;28;20294;-67
2022/04/15 04:52:43;;;;;;;7.55;6.85;;;12.90;99.90;;;;;;5114773;28;20230;-68
2022/04/15 04:55:11;;;;;;;7.80;7.07;;;12.90;99.90;;;;;;5114598;28;20203;-67
2022/04/15 04:57:39;;;;;;;8.73;6.90;;;12.90;99.90;;;;;;5114786;28;20201;-68
2022/04/15 05:00:08;;;;;;;8.90;7.95;;;12.90;99.90;;;;;;5114608;28;20201;-68
2022/04/15 05:02:35;;;;;;;8.82;7.80;;;13.00;99.90;;;;;;5114379;28;20213;-68
2022/04/15 05:05:02;;;;;;;10.27;7.00;;;13.10;99.90;;;;;;5114216;28;20206;-68
2022/04/15 05:07:30;;;;;;;8.27;6.63;;;13.20;99.90;;;;;;5114633;28;20212;-68
2022/04/15 05:09:57;;;;;;;10.45;7.93;;;13.30;99.90;;;;;;5114380;28;20202;-68
2022/04/15 05:12:24;;;;;;;8.20;7.40;;;13.30;99.90;;;;;;5114244;28;20703;-68
2022/04/15 05:14:51;;;;;;;10.20;7.68;;;13.40;99.90;;;;;;5114387;28;20569;-68
2022/04/15 05:17:18;;;;;;;10.52;7.70;;;13.50;99.90;;;;;;5114862;28;20555;-68
2022/04/15 05:19:45;;;;;;;7.55;6.78;;;13.50;99.90;;;;;;5114505;28;20205;-68
2022/04/15 05:22:13;;;;;;;8.48;7.55;;;13.50;99.90;;;;;;5114390;28;20578;-68
2022/04/15 05:24:41;;;;;;;7.75;6.78;;;13.30;99.90;;;;;;5114192;28;20197;-68
2022/04/15 05:27:08;;;;;;;9.48;7.30;;;13.40;99.90;;;;;;5114342;28;20207;-68
2022/04/15 05:29:35;;;;;;;7.95;7.15;;;13.50;99.90;;;;;;5114045;28;20209;-68
2022/04/15 05:32:03;;;;;;;9.50;7.75;;;13.40;99.90;;;;;;5114187;28;20231;-68
2022/04/15 05:34:30;;;;;;;7.90;7.20;;;13.50;99.90;;;;;;5113735;28;20640;-68
2022/04/15 05:36:56;;;;;;;9.32;7.82;;;13.60;99.90;;;;;;5114057;28;20678;-67
2022/04/15 05:39:24;;;;;;;8.45;7.50;;;13.70;99.90;;;;;;5114342;28;20205;-68
2022/04/15 05:41:52;;;;;;;9.35;7.72;;;13.60;99.90;;;;;;5113972;28;20253;-68
2022/04/15 05:44:19;;;;;;;8.05;7.25;;;13.50;99.90;;;;;;5113985;28;20555;-67
2022/04/15 05:46:45;;;;;;;7.85;7.15;;;13.50;99.90;;;;;;5114016;28;20204;-68
2022/04/15 05:49:15;;;;;;;9.50;7.65;;;13.40;99.90;;;;;;5113875;28;20770;-68
2022/04/15 05:51:43;;;;;;;8.82;7.93;;;13.50;99.90;;;;;;5114051;28;20229;-68
2022/04/15 05:54:10;;;;;;;10.52;9.40;;;13.40;99.90;;;;;;5115306;28;20270;-68
2022/04/15 05:56:37;;;;;;;9.45;8.55;;;13.40;99.90;;;;;;5118312;28;20229;-68
2022/04/15 05:59:06;;;;;;;10.35;9.35;;;13.30;99.90;;;;;;5118203;27;20208;-68
2022/04/15 06:01:32;;;;;;;13.15;9.32;;;13.30;99.90;;;;;;5118494;28;20644;-68
2022/04/15 06:03:59;;;;;;;10.18;8.90;;;13.40;99.90;;;;;;5118012;28;20193;-68
2022/04/15 06:06:26;;;;;;;11.30;8.45;;;13.50;99.90;;;;;;5118340;28;20203;-68
2022/04/15 06:08:53;;;;;;;11.50;9.18;;;13.70;99.90;;;;;;5118061;28;20288;-68
2022/04/15 06:11:20;;;;;;;9.32;8.43;;;13.90;99.90;;;;;;5117807;28;20232;-68
2022/04/15 06:13:48;;;;;;;9.20;8.32;;;14.10;99.90;;;;;;5117935;28;20222;-68
2022/04/15 06:16:17;;;;;;;10.23;9.18;;;14.10;99.90;;;;;;5117910;27;20255;-68
2022/04/15 06:18:44;;;;;;;10.27;8.90;;;14.10;99.90;;;;;;5118581;28;20567;-68
2022/04/15 06:21:11;;;;;;;9.63;8.70;;;14.20;99.90;;;;;;5117622;28;20233;-68
2022/04/15 06:23:39;;;;;;;11.38;10.27;;;14.20;99.90;;;;;;5117302;28;20746;-68
2022/04/15 06:26:06;;;;;;;11.63;9.45;;;14.20;99.90;;;;;;5117602;28;20198;-68
2022/04/15 06:28:33;;;;;;;10.45;9.32;;;14.10;99.90;;;;;;5117550;28;20201;-68
2022/04/15 06:31:00;;;;;;;10.35;8.70;;;14.00;99.90;;;;;;5117661;28;20222;-69
2022/04/15 06:33:28;;;;;;;12.45;8.65;;;14.00;99.90;;;;;;5117458;27;20239;-68
2022/04/15 06:35:55;;;;;;;9.13;8.35;;;13.90;99.90;;;;;;5117581;28;20631;-68
2022/04/15 06:38:22;;;;;;;11.05;9.30;;;14.00;99.90;;;;;;5117417;28;20209;-68
2022/04/15 06:40:48;;;;;;;9.35;8.45;;;14.20;99.90;;;;;;5117275;27;20234;-69
2022/04/15 06:43:15;;;;;;;8.15;7.35;;;14.40;99.90;;;;;;5116993;28;20197;-69
2022/04/15 06:45:42;;;;;;;9.50;8.45;;;14.30;99.90;;;;;;5117305;28;20209;-68
2022/04/15 06:48:09;;;;;;;11.77;9.10;;;14.30;99.90;;;;;;5117408;28;20750;-68
2022/04/15 06:50:38;;;;;;;11.82;10.15;;;14.20;99.90;;;;;;5117151;28;20202;-69
2022/04/15 06:53:06;;;;;;;10.27;9.23;;;14.10;99.90;;;;;;5116941;28;20217;-69
2022/04/15 06:55:33;;;;;;;9.77;8.75;;;14.10;99.90;;;;;;5117108;28;20205;-68
2022/04/15 06:58:00;;;;;;;12.20;10.13;;;14.10;99.90;;;;;;5117113;28;20201;-69
2022/04/15 07:00:27;;;;;;;15.23;12.32;;;14.30;99.90;;;;;;5117377;28;20209;-68
2022/04/15 07:02:54;;;;;;;12.00;10.57;;;14.50;99.90;;;;;;5116926;28;20557;-68
2022/04/15 07:05:21;;;;;;;11.85;10.60;;;14.70;99.90;;;;;;5115813;27;20234;-68
2022/04/15 07:07:49;;;;;;;13.85;11.15;;;14.90;99.90;;;;;;5116901;27;20331;-69
2022/04/15 07:10:16;;;;;;;13.82;12.13;;;15.00;99.90;;;;;;5116823;28;20287;-68
2022/04/15 07:12:43;;;;;;;13.50;12.05;;;15.20;99.90;;;;;;5116887;28;20319;-68
2022/04/15 07:15:11;;;;;;;16.20;12.45;;;15.20;99.90;;;;;;5116478;28;20220;-68
2022/04/15 07:17:38;;;;;;;13.93;10.60;;;15.10;99.90;;;;;;5116697;28;20205;-68
2022/04/15 07:20:06;;;;;;;13.60;12.25;;;15.00;99.90;;;;;;5116688;28;20541;-68
2022/04/15 07:22:33;;;;;;;12.88;11.60;;;15.20;99.90;;;;;;5116529;28;20230;-68
2022/04/15 07:25:01;;;;;;;16.17;13.20;;;15.20;99.90;;;;;;5116499;28;20209;-68
2022/04/15 07:27:28;;;;;;;14.63;13.20;;;15.20;99.90;;;;;;5116495;28;20204;-68
2022/04/15 07:29:55;;;;;;;13.90;12.48;;;15.20;99.90;;;;;;5116376;28;20254;-68
2022/04/15 07:32:22;;;;;;;15.82;12.93;;;15.40;99.90;;;;;;5116259;27;20589;-68
2022/04/15 07:34:50;;;;;;;13.82;12.40;;;15.60;99.90;;;;;;5115908;28;20678;-68
2022/04/15 07:37:17;;;;;;;13.90;12.50;;;15.70;99.90;;;;;;5116272;28;20204;-67
2022/04/15 07:39:44;;;;;;;15.73;13.63;;;15.60;99.90;;;;;;5116326;28;20213;-68
2022/04/15 07:42:13;;;;;;;14.02;12.52;;;15.70;99.90;;;;;;5116174;28;20605;-67
2022/04/15 07:44:40;;;;;;;17.23;15.43;;;15.70;99.90;;;;;;5115992;28;20204;-67
2022/04/15 07:47:09;;;;;;;17.20;15.50;;;15.90;99.90;;;;;;5116116;28;20542;-68
2022/04/15 07:49:36;;;;;;;19.08;15.95;;;16.00;99.90;;;;;;5116004;28;20211;-68
2022/04/15 07:52:04;;;;;;;17.60;15.80;;;16.00;99.90;;;;;;5116037;28;20224;-68
2022/04/15 07:54:31;;;;;;;16.17;14.48;;;16.10;99.90;;;;;;5115734;28;20220;-68
2022/04/15 07:56:58;;;;;;;18.00;16.10;;;16.10;99.90;;;;;;5115942;28;20200;-68
2022/04/15 07:59:26;;;;;;;19.85;17.75;;;16.00;99.90;;;;;;5115921;28;20206;-68
2022/04/15 08:01:53;;;;;;;18.73;16.67;;;16.00;99.90;;;;;;5115755;28;20228;-68
2022/04/15 08:04:20;;;;;;;17.70;15.95;;;16.10;99.90;;;;;;5115913;28;20201;-68
2022/04/15 08:06:47;;;;;;;15.88;14.18;;;16.40;99.90;;;;;;5115824;28;20231;-68
2022/04/15 08:09:14;;;;;;;15.45;13.80;;;16.60;99.90;;;;;;5115527;28;20663;-68
2022/04/15 08:11:40;;;;;;;18.63;16.83;;;16.70;99.90;;;;;;5115415;28;20232;-67
2022/04/15 08:14:08;;;;;;;18.15;16.23;;;16.80;99.90;;;;;;5115416;28;20227;-68
2022/04/15 08:16:36;;;;;;;21.60;18.30;;;16.90;99.90;;;;;;5115409;28;20205;-68
2022/04/15 08:19:03;;;;;;;19.45;17.30;;;16.90;99.90;;;;;;5115492;28;20563;-68
2022/04/15 08:21:31;;;;;;;20.20;17.10;;;16.90;99.90;;;;;;5115390;28;20231;-68
2022/04/15 08:23:59;;;;;;;17.13;15.43;;;17.00;99.90;;;;;;5115232;28;20197;-68
2022/04/15 08:26:26;;;;;;;18.55;16.58;;;17.20;99.90;;;;;;5115392;28;20284;-68
2022/04/15 08:28:52;;;;;;;20.83;16.85;;;17.30;99.90;;;;;;5115196;28;20209;-68
2022/04/15 08:31:19;;;;;;;19.35;16.17;;;17.40;99.90;;;;;;5115255;28;20707;-68
2022/04/15 08:33:47;;;;;;;19.65;16.88;;;17.50;99.90;;;;;;5115003;28;20224;-68
2022/04/15 08:36:15;;;;;;;19.90;17.80;;;17.70;99.90;;;;;;5115224;28;20288;-68
2022/04/15 08:38:41;;;;;;;20.40;18.33;;;17.90;99.90;;;;;;5115093;28;20682;-68
2022/04/15 08:41:12;;;;;;;21.05;18.88;;;18.10;99.90;;;;;;5115034;28;20220;-68
2022/04/15 08:43:41;;;;;;;19.77;17.83;;;18.10;99.90;;;;;;5114899;28;20182;-68
2022/04/15 08:46:08;;;;;;;20.17;18.17;;;18.00;99.90;;;;;;5114839;28;20212;-68
2022/04/15 08:48:36;;;;;;;19.50;17.58;;;17.80;99.90;;;;;;5114882;28;20205;-68
2022/04/15 08:51:06;;;;;;;19.48;17.45;;;17.80;99.90;;;;;;5114999;28;20240;-69
2022/04/15 08:53:35;;;;;;;18.98;17.08;;;18.00;99.90;;;;;;5115049;28;20216;-69
2022/04/15 08:56:02;;;;;;;19.48;17.45;;;18.30;99.90;;;;;;5114884;28;20198;-68
2022/04/15 08:58:29;;;;;;;20.63;18.48;;;18.70;99.90;;;;;;5114817;28;20207;-68
2022/04/15 09:00:56;;;;;;;20.17;18.27;;;19.10;99.90;;;;;;5114681;28;20219;-69
2022/04/15 09:03:23;;;;;;;22.57;20.47;;;19.60;98.60;;;;;;5114601;28;20483;-69
2022/04/15 09:05:51;;;;;;;24.40;21.90;;;19.50;97.20;;;;;;5114596;28;20440;-68
2022/04/15 09:08:19;;;;;;;24.15;21.75;;;19.10;95.80;;;;;;5114408;28;20455;-68
2022/04/15 09:10:56;;;;;;;24.67;22.27;;;18.90;96.00;;;;;;5114490;28;20596;-68
2022/04/15 09:13:28;;;;;;;23.45;21.00;;;18.90;96.00;;;;;;5114740;28;20189;-68
2022/04/15 09:15:55;;;;;;;25.10;22.50;;;19.00;96.50;;;;;;5114761;28;20205;-68
2022/04/15 09:18:36;;;;;;;23.60;21.20;;;18.90;95.90;;;;;;5114296;28;20210;-68
2022/04/15 09:21:19;;;;;;;23.90;21.50;;;19.20;95.40;;;;;;5114326;28;20512;-68
2022/04/15 09:23:53;;;;;;;25.27;22.87;;;19.40;95.60;;;;;;5114248;28;20443;-68
2022/04/15 09:26:20;;;;;;;25.77;22.93;;;19.40;93.00;;;;;;5114406;28;20861;-68
2022/04/15 09:28:48;;;;;;;25.43;22.67;;;19.50;93.10;;;;;;5113667;28;20468;-68
2022/04/15 09:31:16;;;;;;;23.03;20.80;;;19.90;92.80;;;;;;5114139;28;20465;-69
2022/04/15 09:33:57;;;;;;;20.43;18.53;;;20.90;92.50;;;;;;5114019;28;20783;-69
2022/04/15 09:36:26;;;;;;;21.03;18.80;;;21.70;90.10;;;;;;5114183;28;20435;-68
2022/04/15 09:38:59;;;;;;;23.33;21.13;;;22.10;88.80;;;;;;5113979;28;20439;-68
2022/04/15 09:41:29;;;;;;;21.77;19.80;;;22.50;84.50;;;;;;5114067;28;20470;-68
2022/04/15 09:43:57;;;;;;;22.97;20.77;;;23.00;81.50;;;;;;5114311;28;20759;-68
2022/04/15 09:46:26;;;;;;;22.97;20.90;;;22.20;79.70;;;;;;5114126;28;20796;-68
2022/04/15 09:49:06;;;;;;;21.70;19.63;;;22.30;80.00;;;;;;5114147;28;20444;-68
2022/04/15 09:51:36;;;;;;;20.63;18.83;;;22.90;79.70;;;;;;5113963;28;20995;-69
2022/04/15 09:54:05;;;;;;;22.77;20.70;;;24.30;75.30;;;;;;5114136;28;20824;-68
2022/04/15 09:56:34;;;;;;;21.20;19.30;;;24.90;70.00;;;;;;5114212;28;20442;-70
2022/04/15 09:59:05;;;;;;;22.83;20.73;;;25.00;68.30;;;;;;5114405;28;20443;-69
2022/04/15 10:01:33;;;;;;;22.90;20.90;;;24.70;67.60;;;;;;5114278;28;20467;-69
2022/04/15 10:04:01;;;;;;;20.23;18.43;;;24.60;64.50;;;;;;5113815;28;20943;-69
2022/04/15 10:06:29;;;;;;;22.13;20.13;;;24.80;63.90;;;;;;5114067;28;20835;-69
2022/04/15 10:08:59;;;;;;;19.10;17.30;;;25.40;63.00;;;;;;5114185;28;20494;-70
2022/04/15 10:11:27;;;;;;;22.80;20.80;;;25.30;62.70;;;;;;5113603;28;20976;-69
2022/04/15 10:13:56;;;;;;;20.13;18.53;;;25.30;60.20;;;;;;5113670;28;20446;-69
2022/04/15 10:16:23;;;;;;;19.13;17.50;;;24.30;61.30;;;;;;5114152;28;20442;-69
2022/04/15 10:18:51;;;;;;;19.87;18.17;;;23.80;64.80;;;;;;5114346;28;20449;-69
2022/04/15 10:21:19;;;;;;;18.30;16.70;;;24.60;62.80;;;;;;5113775;28;20827;-69
2022/04/15 10:23:46;;;;;;;18.43;16.83;;;25.00;63.10;;;;;;5113725;28;20805;-69
2022/04/15 10:26:13;;;;;;;18.43;16.83;;;25.30;61.70;;;;;;5113729;28;20432;-69
2022/04/15 10:28:44;;;;;;;20.60;18.60;;;26.20;60.00;;;;;;5113580;28;20529;-70
2022/04/15 10:31:13;;;;;;;20.90;19.10;;;26.10;57.60;;;;;;5113957;28;20516;-69
2022/04/15 10:33:41;;;;;;;18.93;17.17;;;25.60;59.30;;;;;;5113644;28;20541;-69
2022/04/15 10:36:13;;;;;;;18.03;16.53;;;25.50;59.40;;;;;;5113572;28;20471;-69
2022/04/15 10:39:14;;;;;;;15.93;14.57;;;25.70;59.60;;;;;;5113614;28;20526;-69
2022/04/15 10:41:56;;;;;;;16.77;15.27;;;26.40;57.40;;;;;;5115845;28;20470;-69
2022/04/15 10:44:28;;;;;;;13.90;12.80;;;25.70;56.30;;;;;;5117373;28;20503;-69
2022/04/15 10:46:59;;;;;;;17.40;16.00;;;26.30;58.00;;;;;;5117338;28;20436;-69
2022/04/15 10:49:30;;;;;;;18.27;16.57;;;27.60;54.70;;;;;;5117312;28;20436;-69
2022/04/15 10:52:00;;;;;;;16.53;14.90;;;27.50;52.30;;;;;;5116888;28;20454;-69
2022/04/15 10:54:32;;;;;;;16.80;15.20;;;26.80;54.00;;;;;;5116766;28;20463;-69
2022/04/15 10:56:59;;;;;;;17.63;16.23;;;24.60;56.00;;;;;;5117110;27;20802;-69
2022/04/15 11:02:15;;;;;;;16.47;14.97;;;23.50;59.20;;;;;;5082748;28;20443;-69
2022/04/15 11:04:47;;;;;;;15.63;14.20;;;22.40;61.50;;;;;;5116795;28;20514;-69
2022/04/15 11:07:25;;;;;;;18.93;17.13;;;22.10;64.30;;;;;;5116922;28;20431;-69
2022/04/15 11:09:52;;;;;;;16.17;14.70;;;21.70;64.40;;;;;;5116927;27;20762;-69
2022/04/15 11:12:30;;;;;;;15.80;14.20;;;22.30;65.60;;;;;;5116524;28;20967;-69
2022/04/15 11:14:58;;;;;;;13.47;12.27;;;23.30;62.30;;;;;;5116608;28;20896;-69
2022/04/15 11:17:38;;;;;;;14.47;13.20;;;23.50;63.00;;;;;;5116835;28;20446;-69
2022/04/15 11:20:06;;;;;;;16.03;14.63;;;23.70;61.00;;;;;;5117451;28;20439;-69
2022/04/15 11:22:37;;;;;;;14.50;13.20;;;23.10;59.20;;;;;;5116613;28;20493;-69
2022/04/15 11:25:05;;;;;;;14.00;12.70;;;22.50;61.70;;;;;;5116270;28;20901;-69
2022/04/15 11:27:35;;;;;;;14.67;13.47;;;22.30;62.20;;;;;;5116415;28;20454;-68
2022/04/15 11:30:05;;;;;;;14.60;13.30;;;22.50;60.40;;;;;;5116351;28;20464;-69
2022/04/15 11:32:31;;;;;;;13.97;12.80;;;21.90;60.40;;;;;;5116337;28;20471;-68
2022/04/15 11:35:03;;;;;;;14.77;13.47;;;21.60;62.90;;;;;;5116141;28;20478;-68
2022/04/15 11:37:30;;;;;;;15.47;13.80;;;21.40;62.30;;;;;;5116389;28;20439;-69
2022/04/15 11:39:59;;;;;;;12.63;11.60;;;21.50;63.60;;;;;;5116326;28;20518;-69
2022/04/15 11:42:28;;;;;;;12.30;11.27;;;21.90;64.90;;;;;;5116146;27;20459;-69
2022/04/15 11:44:54;;;;;;;15.80;14.40;;;21.90;65.00;;;;;;5115750;28;20435;-68
2022/04/15 11:47:26;;;;;;;14.40;13.10;;;21.20;65.60;;;;;;5116201;28;20438;-69
2022/04/15 11:49:53;;;;;;;16.43;14.73;;;20.60;68.50;;;;;;5116124;28;20442;-68
2022/04/15 11:52:25;;;;;;;14.47;13.17;;;20.40;68.10;;;;;;5115733;28;20536;-69
2022/04/15 11:54:52;;;;;;;13.90;12.50;;;20.30;68.80;;;;;;5115764;28;20862;-69
2022/04/15 11:57:20;;;;;;;12.90;11.70;;;20.40;69.60;;;;;;5115651;28;20451;-68
2022/04/15 11:59:48;;;;;;;12.93;11.63;;;20.80;68.30;;;;;;5115635;28;20452;-68
2022/04/15 12:02:18;;;;;;;15.10;13.60;;;21.10;68.50;;;;;;5115540;28;20972;-69
2022/04/15 12:04:54;;;;;;;14.33;13.10;;;21.40;66.10;;;;;;5116067;28;20438;-69
2022/04/15 12:07:21;;;;;;;15.17;13.67;;;21.60;65.60;;;;;;5115831;28;20438;-69
2022/04/15 12:09:48;;;;;;;14.50;13.20;;;21.70;64.90;;;;;;5115651;28;20537;-69
2022/04/15 12:12:16;;;;;;;14.60;13.30;;;21.80;64.50;;;;;;5115679;28;20463;-69
2022/04/15 12:14:43;;;;;;;13.10;11.83;;;21.90;64.70;;;;;;5115384;28;20451;-68
2022/04/15 12:17:14;;;;;;;11.83;10.83;;;22.10;65.50;;;;;;5115576;28;20465;-68
2022/04/15 12:19:41;;;;;;;12.53;11.33;;;22.30;64.80;;;;;;5115549;28;20463;-69
2022/04/15 12:22:10;;;;;;;12.40;11.30;;;22.40;63.50;;;;;;5115137;28;20463;-69
2022/04/15 12:24:37;;;;;;;12.50;11.40;;;22.30;62.90;;;;;;5115237;28;20454;-68
2022/04/15 12:27:05;;;;;;;14.03;12.83;;;22.10;60.80;;;;;;5115365;28;20465;-69
2022/04/15 12:29:52;;;;;;;15.47;13.63;;;21.80;61.50;;;;;;5115114;28;20451;-68
2022/04/15 12:32:21;;;;;;;14.20;12.90;;;21.50;62.30;;;;;;5114963;28;20963;-68
2022/04/15 12:34:49;;;;;;;12.30;11.17;;;21.10;62.80;;;;;;5115004;28;20864;-69
2022/04/15 12:37:34;;;;;;;13.70;12.30;;;21.10;64.90;;;;;;5115158;28;20798;-68
2022/04/15 12:40:03;;;;;;;11.43;10.40;;;21.20;63.20;;;;;;5115134;28;20801;-68
2022/04/15 12:42:32;;;;;;;13.30;11.90;;;21.50;64.60;;;;;;5115225;28;20562;-68
2022/04/15 12:45:00;;;;;;;11.23;10.13;;;21.60;62.40;;;;;;5114861;28;20793;-68